createdAt,value
2023-02-28T00:00:33.947Z,9.00
2023-02-28T00:01:35.547Z,7.00
2023-02-28T00:02:38.531Z,7.00
2023-02-28T00:03:40.179Z,6.50
2023-02-28T00:04:42.820Z,6.50
2023-02-28T00:05:44.498Z,7.00
2023-02-28T00:06:47.088Z,10.00
2023-02-28T00:07:48.984Z,7.00
2023-02-28T00:08:52.920Z,8.50
2023-02-28T00:09:54.617Z,7.00
2023-02-28T00:10:57.291Z,7.00
2023-02-28T00:11:59.008Z,7.00
2023-02-28T00:13:03.150Z,5.50
2023-02-28T00:14:04.804Z,7.00
2023-02-28T00:15:10.216Z,7.00
2023-02-28T00:16:14.033Z,9.00
2023-02-28T00:17:17.266Z,7.00
2023-02-28T00:18:18.888Z,7.50
2023-02-28T00:19:21.473Z,7.00
2023-02-28T00:20:23.172Z,7.00
2023-02-28T00:21:25.871Z,7.00
2023-02-28T00:22:27.470Z,9.00
2023-02-28T00:23:30.093Z,7.00
2023-02-28T00:24:33.063Z,8.50
2023-02-28T00:25:35.766Z,11.00
2023-02-28T00:26:38.365Z,8.50
2023-02-28T00:27:40.370Z,7.00
2023-02-28T00:28:42.937Z,9.00
2023-02-28T00:29:44.553Z,11.00
2023-02-28T00:30:47.218Z,12.50
2023-02-28T00:31:48.860Z,7.00
2023-02-28T00:32:51.597Z,9.25
2023-02-28T00:33:53.220Z,9.00
2023-02-28T00:34:55.796Z,11.00
2023-02-28T00:36:07.565Z,11.00
2023-02-28T00:37:11.340Z,11.00
2023-02-28T00:38:12.954Z,9.50
2023-02-28T00:39:15.525Z,9.00
2023-02-28T00:40:18.749Z,8.00
2023-02-28T00:41:21.364Z,8.00
2023-02-28T00:42:23.084Z,7.00
2023-02-28T00:43:25.671Z,7.00
2023-02-28T00:44:27.359Z,9.50
2023-02-28T00:45:29.957Z,11.00
2023-02-28T00:46:31.662Z,7.50
2023-02-28T00:47:34.286Z,9.00
2023-02-28T00:48:36.207Z,10.00
2023-02-28T00:49:38.776Z,9.00
2023-02-28T00:50:40.383Z,10.00
2023-02-28T00:51:42.996Z,8.00
2023-02-28T00:52:44.876Z,7.50
2023-02-28T00:53:47.474Z,10.00
2023-02-28T00:54:49.093Z,11.00
2023-02-28T00:55:53.059Z,14.75
2023-02-28T00:56:54.728Z,11.00
2023-02-28T00:57:57.311Z,9.00
2023-02-28T00:58:58.913Z,12.50
2023-02-28T01:00:01.479Z,9.00
2023-02-28T01:01:03.207Z,9.00
2023-02-28T01:02:05.876Z,9.00
2023-02-28T01:03:07.489Z,11.50
2023-02-28T01:04:10.088Z,10.00
2023-02-28T01:05:12.691Z,9.50
2023-02-28T01:06:14.436Z,14.00
2023-02-28T01:07:17.057Z,8.00
2023-02-28T01:08:18.663Z,10.50
2023-02-28T01:09:21.243Z,10.50
2023-02-28T01:10:23.829Z,9.00
2023-02-28T01:11:27.142Z,10.50
2023-02-28T01:12:31.104Z,12.00
2023-02-28T01:13:32.785Z,9.50
2023-02-28T01:14:35.607Z,7.00
2023-02-28T01:15:37.239Z,10.00
2023-02-28T01:16:42.387Z,10.50
2023-02-28T01:17:44.050Z,8.50
2023-02-28T01:18:46.618Z,11.00
2023-02-28T01:19:48.215Z,9.50
2023-02-28T01:20:52.664Z,8.00
2023-02-28T01:21:54.324Z,9.00
2023-02-28T01:22:56.973Z,7.50
2023-02-28T01:23:58.746Z,7.00
2023-02-28T01:25:01.321Z,7.50
2023-02-28T01:26:05.584Z,7.00
2023-02-28T01:27:09.512Z,9.00
2023-02-28T01:28:11.163Z,9.00
2023-02-28T01:29:13.766Z,11.25
2023-02-28T01:30:15.553Z,10.00
2023-02-28T01:31:19.145Z,10.00
2023-02-28T01:32:22.253Z,9.00
2023-02-28T01:33:23.948Z,9.00
2023-02-28T01:34:26.539Z,10.50
2023-02-28T01:35:28.161Z,13.00
2023-02-28T01:36:30.791Z,10.00
2023-02-28T01:37:32.413Z,7.50
2023-02-28T01:38:35.122Z,10.00
2023-02-28T01:39:36.730Z,11.00
2023-02-28T01:40:39.296Z,13.00
2023-02-28T01:41:40.974Z,11.00
2023-02-28T01:42:44.898Z,11.00
2023-02-28T01:44:00.687Z,12.25
2023-02-28T01:45:07.907Z,9.00
2023-02-28T01:46:09.667Z,11.00
2023-02-28T01:47:12.238Z,7.50
2023-02-28T01:48:13.900Z,8.50
2023-02-28T01:49:17.414Z,9.00
2023-02-28T01:50:20.163Z,8.50
2023-02-28T01:51:24.223Z,8.50
2023-02-28T01:52:25.966Z,11.50
2023-02-28T01:53:31.338Z,6.50
2023-02-28T01:54:33.582Z,11.00
2023-02-28T01:55:36.168Z,12.75
2023-02-28T01:56:37.797Z,9.50
2023-02-28T01:57:42.132Z,9.00
2023-02-28T01:58:45.130Z,9.00
2023-02-28T01:59:50.756Z,11.00
2023-02-28T02:00:52.370Z,12.00
2023-02-28T02:01:55.363Z,10.50
2023-02-28T02:02:58.526Z,10.50
2023-02-28T02:04:02.401Z,11.00
2023-02-28T02:05:05.028Z,9.00
2023-02-28T02:06:07.627Z,8.00
2023-02-28T02:07:09.308Z,11.50
2023-02-28T02:08:14.193Z,10.00
2023-02-28T02:09:15.860Z,10.50
2023-02-28T02:10:19.293Z,9.00
2023-02-28T02:11:21.803Z,7.50
2023-02-28T02:12:27.533Z,13.50
2023-02-28T02:13:39.203Z,11.00
2023-02-28T02:14:49.557Z,9.00
2023-02-28T02:15:58.967Z,11.50
2023-02-28T02:17:15.291Z,9.00
2023-02-28T02:18:20.836Z,9.25
2023-02-28T02:19:48.285Z,11.00
2023-02-28T02:21:30.768Z,7.00
2023-02-28T02:22:46.686Z,9.00
2023-02-28T02:24:28.843Z,9.00
2023-02-28T02:25:30.793Z,7.50
2023-02-28T02:26:46.456Z,7.50
2023-02-28T02:28:12.875Z,8.25
2023-02-28T02:29:33.113Z,8.25
2023-02-28T02:31:03.635Z,10.00
2023-02-28T02:32:24.854Z,8.00
2023-02-28T02:33:59.415Z,8.75
2023-02-28T02:35:07.082Z,9.00
2023-02-28T02:36:10.406Z,6.50
2023-02-28T02:37:18.084Z,10.25
2023-02-28T02:38:22.095Z,7.25
2023-02-28T02:39:26.330Z,11.00
2023-02-28T02:40:31.809Z,9.00
2023-02-28T02:41:36.951Z,9.00
2023-02-28T02:42:43.550Z,10.50
2023-02-28T02:43:48.583Z,11.00
2023-02-28T02:44:54.847Z,11.00
2023-02-28T02:45:57.813Z,9.00
2023-02-28T02:47:00.779Z,10.00
2023-02-28T02:48:03.714Z,7.00
2023-02-28T02:49:07.097Z,9.00
2023-02-28T02:50:13.999Z,9.00
2023-02-28T02:51:16.442Z,7.00
2023-02-28T02:52:22.122Z,12.00
2023-02-28T02:53:25.250Z,8.50
2023-02-28T02:54:29.824Z,7.50
2023-02-28T02:55:31.766Z,9.50
2023-02-28T02:56:34.573Z,11.00
2023-02-28T02:57:37.203Z,10.00
2023-02-28T02:58:43.062Z,9.00
2023-02-28T02:59:44.745Z,7.00
2023-02-28T03:00:48.440Z,7.00
2023-02-28T03:01:50.993Z,7.00
2023-02-28T03:02:53.614Z,7.00
2023-02-28T03:03:57.030Z,7.00
2023-02-28T03:05:01.838Z,9.50
2023-02-28T03:06:06.824Z,7.50
2023-02-28T03:07:09.408Z,7.00
2023-02-28T03:08:11.022Z,12.00
2023-02-28T03:09:13.624Z,7.50
2023-02-28T03:10:36.247Z,9.00
2023-02-28T03:11:39.220Z,8.25
2023-02-28T03:12:42.430Z,7.00
2023-02-28T03:14:01.539Z,7.50
2023-02-28T03:15:08.769Z,7.00
2023-02-28T03:16:37.201Z,9.75
2023-02-28T03:17:50.685Z,7.50
2023-02-28T03:18:55.189Z,9.75
2023-02-28T03:20:05.123Z,9.50
2023-02-28T03:21:13.563Z,9.00
2023-02-28T03:22:35.263Z,8.00
2023-02-28T03:23:39.531Z,9.75
2023-02-28T03:24:45.230Z,7.00
2023-02-28T03:25:54.770Z,9.00
2023-02-28T03:27:01.491Z,11.00
2023-02-28T03:28:06.386Z,8.50
2023-02-28T03:29:13.827Z,8.75
2023-02-28T03:30:16.913Z,7.75
2023-02-28T03:31:21.320Z,10.50
2023-02-28T03:32:25.557Z,12.00
2023-02-28T03:33:29.688Z,7.75
2023-02-28T03:34:33.855Z,11.00
2023-02-28T03:35:38.004Z,10.50
2023-02-28T03:36:45.060Z,9.00
2023-02-28T03:37:47.851Z,9.75
2023-02-28T03:38:50.503Z,11.00
2023-02-28T03:39:55.368Z,8.00
2023-02-28T03:40:59.781Z,7.50
2023-02-28T03:42:03.641Z,8.50
2023-02-28T03:43:09.688Z,9.50
2023-02-28T03:44:16.237Z,10.75
2023-02-28T03:45:18.561Z,8.50
2023-02-28T03:46:23.032Z,8.00
2023-02-28T03:47:26.008Z,9.00
2023-02-28T03:48:31.865Z,9.00
2023-02-28T03:49:35.576Z,9.50
2023-02-28T03:50:39.069Z,11.00
2023-02-28T03:51:42.172Z,7.00
2023-02-28T03:52:47.108Z,10.00
2023-02-28T03:53:52.324Z,12.50
2023-02-28T03:54:58.019Z,9.00
2023-02-28T03:56:01.292Z,11.00
2023-02-28T03:57:06.875Z,13.00
2023-02-28T03:58:13.605Z,9.00
2023-02-28T03:59:17.196Z,9.00
2023-02-28T04:00:19.907Z,9.00
2023-02-28T04:01:24.000Z,7.50
2023-02-28T04:02:25.651Z,9.50
2023-02-28T04:03:28.242Z,11.00
2023-02-28T04:04:29.923Z,10.50
2023-02-28T04:05:32.533Z,10.50
2023-02-28T04:06:34.516Z,10.50
2023-02-28T04:07:38.725Z,7.00
2023-02-28T04:08:40.359Z,10.00
2023-02-28T04:09:43.007Z,7.00
2023-02-28T04:10:44.688Z,7.50
2023-02-28T04:11:48.041Z,9.00
2023-02-28T04:12:49.692Z,9.00
2023-02-28T04:13:52.293Z,7.50
2023-02-28T04:14:53.963Z,11.00
2023-02-28T04:15:56.574Z,8.50
2023-02-28T04:16:58.181Z,7.50
2023-02-28T04:18:00.795Z,11.00
2023-02-28T04:19:03.173Z,11.50
2023-02-28T04:20:10.457Z,10.50
2023-02-28T04:21:12.387Z,9.00
2023-02-28T04:22:15.417Z,9.00
2023-02-28T04:23:18.479Z,9.75
2023-02-28T04:24:22.735Z,9.00
2023-02-28T04:25:24.356Z,9.00
2023-02-28T04:26:26.952Z,7.50
2023-02-28T04:27:31.811Z,11.50
2023-02-28T04:28:34.291Z,8.50
2023-02-28T04:29:37.001Z,13.50
2023-02-28T04:30:39.173Z,8.00
2023-02-28T04:31:41.936Z,7.00
2023-02-28T04:32:43.611Z,8.50
2023-02-28T04:33:46.224Z,7.50
2023-02-28T04:34:47.898Z,9.00
2023-02-28T04:35:50.528Z,9.00
2023-02-28T04:37:10.077Z,8.50
2023-02-28T04:38:14.793Z,5.25
2023-02-28T04:39:19.342Z,6.25
2023-02-28T04:40:21.946Z,9.00
2023-02-28T04:41:23.862Z,8.25
2023-02-28T04:42:26.432Z,10.50
2023-02-28T04:43:28.553Z,9.00
2023-02-28T04:44:31.137Z,8.50
2023-02-28T04:45:34.763Z,9.00
2023-02-28T04:46:37.366Z,9.00
2023-02-28T04:47:38.993Z,9.00
2023-02-28T04:48:42.000Z,9.00
2023-02-28T04:49:43.793Z,11.00
2023-02-28T04:50:46.436Z,9.00
2023-02-28T04:51:48.291Z,9.00
2023-02-28T04:52:50.883Z,9.00
2023-02-28T04:53:53.036Z,8.50
2023-02-28T04:54:57.027Z,6.50
2023-02-28T04:55:58.761Z,10.50
2023-02-28T04:57:02.472Z,9.00
2023-02-28T04:58:04.116Z,9.50
2023-02-28T04:59:06.702Z,11.00
2023-02-28T05:00:12.453Z,7.00
2023-02-28T05:01:20.151Z,9.00
2023-02-28T05:02:24.663Z,8.50
2023-02-28T05:03:28.024Z,7.00
2023-02-28T05:04:30.715Z,9.50
2023-02-28T05:05:32.344Z,9.00
2023-02-28T05:06:35.101Z,9.00
2023-02-28T05:07:36.743Z,9.00
2023-02-28T05:08:39.367Z,9.00
2023-02-28T05:09:40.986Z,10.50
2023-02-28T05:10:44.923Z,11.50
2023-02-28T05:11:46.553Z,9.50
2023-02-28T05:12:49.756Z,9.50
2023-02-28T05:13:51.532Z,9.00
2023-02-28T05:14:54.136Z,13.00
2023-02-28T05:15:55.822Z,11.50
2023-02-28T05:16:58.495Z,9.00
2023-02-28T05:18:00.124Z,7.50
2023-02-28T05:19:02.840Z,11.50
2023-02-28T05:20:15.097Z,11.00
2023-02-28T05:21:25.761Z,7.75
2023-02-28T05:22:28.342Z,10.75
2023-02-28T05:23:30.159Z,9.25
2023-02-28T05:24:32.917Z,8.50
2023-02-28T05:25:34.525Z,11.25
2023-02-28T05:26:38.806Z,7.75
2023-02-28T05:27:40.448Z,9.00
2023-02-28T05:28:43.031Z,9.00
2023-02-28T05:29:45.638Z,7.00
2023-02-28T05:30:47.405Z,11.00
2023-02-28T05:31:50.302Z,9.00
2023-02-28T05:32:52.241Z,11.00
2023-02-28T05:33:54.821Z,8.50
2023-02-28T05:34:56.454Z,11.25
2023-02-28T05:35:59.088Z,13.00
2023-02-28T05:37:00.777Z,17.00
2023-02-28T05:38:03.381Z,11.75
2023-02-28T05:39:06.132Z,14.25
2023-02-28T05:40:11.227Z,11.25
2023-02-28T05:41:12.876Z,13.75
2023-02-28T05:42:16.837Z,13.50
2023-02-28T05:43:18.449Z,13.25
2023-02-28T05:44:21.049Z,13.00
2023-02-28T05:45:22.661Z,14.00
2023-02-28T05:46:25.248Z,9.25
2023-02-28T05:47:26.920Z,12.75
2023-02-28T05:48:29.528Z,12.75
2023-02-28T05:49:31.195Z,17.00
2023-02-28T05:50:33.792Z,13.25
2023-02-28T05:51:37.224Z,12.25
2023-02-28T05:52:39.856Z,13.00
2023-02-28T05:53:41.486Z,13.00
2023-02-28T05:54:44.094Z,11.25
2023-02-28T05:55:45.752Z,12.75
2023-02-28T05:56:48.338Z,13.00
2023-02-28T05:57:51.324Z,11.00
2023-02-28T05:58:53.913Z,9.00
2023-02-28T05:59:55.555Z,13.00
2023-02-28T06:00:58.213Z,10.50
2023-02-28T06:01:59.846Z,13.00
2023-02-28T06:03:03.166Z,9.25
2023-02-28T06:04:05.865Z,9.00
2023-02-28T06:05:10.300Z,12.25
2023-02-28T06:06:11.931Z,11.00
2023-02-28T06:07:14.522Z,10.00
2023-02-28T06:08:16.148Z,13.00
2023-02-28T06:09:18.752Z,11.00
2023-02-28T06:10:20.609Z,10.75
2023-02-28T06:11:28.085Z,20.00
2023-02-28T06:12:30.031Z,11.00
2023-02-28T06:13:34.007Z,15.75
2023-02-28T06:14:35.821Z,11.50
2023-02-28T06:15:38.440Z,11.00
2023-02-28T06:16:40.116Z,13.50
2023-02-28T06:17:42.719Z,14.00
2023-02-28T06:18:44.325Z,9.75
2023-02-28T06:19:47.224Z,11.75
2023-02-28T06:20:55.404Z,9.75
2023-02-28T06:21:58.310Z,12.50
2023-02-28T06:22:59.924Z,15.25
2023-02-28T06:24:02.674Z,13.25
2023-02-28T06:25:04.793Z,15.25
2023-02-28T06:26:07.481Z,11.00
2023-02-28T06:27:09.129Z,14.75
2023-02-28T06:28:11.706Z,17.00
2023-02-28T06:29:19.229Z,11.75
2023-02-28T06:30:25.576Z,13.00
2023-02-28T06:31:27.338Z,12.25
2023-02-28T06:32:30.040Z,11.00
2023-02-28T06:33:31.647Z,13.00
2023-02-28T06:34:34.915Z,17.00
2023-02-28T06:35:36.555Z,13.25
2023-02-28T06:36:39.185Z,13.00
2023-02-28T06:37:41.883Z,12.75
2023-02-28T06:38:44.691Z,11.00
2023-02-28T06:39:46.323Z,12.50
2023-02-28T06:40:55.217Z,9.00
2023-02-28T06:41:58.198Z,9.00
2023-02-28T06:43:00.967Z,14.25
2023-02-28T06:44:02.592Z,11.00
2023-02-28T06:45:10.258Z,11.00
2023-02-28T06:46:14.568Z,10.75
2023-02-28T06:47:17.244Z,13.00
2023-02-28T06:48:19.893Z,12.25
2023-02-28T06:49:22.507Z,13.50
2023-02-28T06:50:25.152Z,18.00
2023-02-28T06:51:28.234Z,13.00
2023-02-28T06:52:31.017Z,10.00
2023-02-28T06:53:32.710Z,13.00
2023-02-28T06:54:35.306Z,10.00
2023-02-28T06:55:38.764Z,12.50
2023-02-28T06:56:41.412Z,9.00
2023-02-28T06:57:44.018Z,11.00
2023-02-28T06:58:47.594Z,8.00
2023-02-28T06:59:50.226Z,13.00
2023-02-28T07:00:53.365Z,7.50
2023-02-28T07:01:56.867Z,10.00
2023-02-28T07:02:58.527Z,12.00
2023-02-28T07:04:01.228Z,9.00
2023-02-28T07:05:02.898Z,13.00
2023-02-28T07:06:06.863Z,11.00
2023-02-28T07:07:09.529Z,12.50
2023-02-28T07:08:11.209Z,11.00
2023-02-28T07:09:14.753Z,10.50
2023-02-28T07:10:20.094Z,11.00
2023-02-28T07:11:23.385Z,8.50
2023-02-28T07:12:25.161Z,9.00
2023-02-28T07:13:28.044Z,10.00
2023-02-28T07:14:29.668Z,9.00
2023-02-28T07:15:32.311Z,8.00
2023-02-28T07:16:36.267Z,11.00
2023-02-28T07:17:37.889Z,15.50
2023-02-28T07:18:40.587Z,12.50
2023-02-28T07:19:42.246Z,10.00
2023-02-28T07:20:44.844Z,10.50
2023-02-28T07:21:47.436Z,11.50
2023-02-28T07:22:56.010Z,9.00
2023-02-28T07:23:58.740Z,10.00
2023-02-28T07:25:00.408Z,11.00
2023-02-28T07:26:03.017Z,14.50
2023-02-28T07:27:04.702Z,9.00
2023-02-28T07:28:07.290Z,15.25
2023-02-28T07:29:10.048Z,11.00
2023-02-28T07:30:13.042Z,9.50
2023-02-28T07:31:16.028Z,15.00
2023-02-28T07:32:19.650Z,12.50
2023-02-28T07:33:22.254Z,10.00
2023-02-28T07:34:24.886Z,12.50
2023-02-28T07:35:26.657Z,11.00
2023-02-28T07:36:29.369Z,10.50
2023-02-28T07:37:32.416Z,9.00
2023-02-28T07:38:35.748Z,10.50
2023-02-28T07:39:37.398Z,9.50
2023-02-28T07:40:40.038Z,10.00
2023-02-28T07:41:44.468Z,9.00
2023-02-28T07:42:46.310Z,9.00
2023-02-28T07:43:49.113Z,9.50
2023-02-28T07:44:52.615Z,11.00
2023-02-28T07:45:55.260Z,13.00
2023-02-28T07:46:57.925Z,7.00
2023-02-28T07:48:01.023Z,8.50
2023-02-28T07:49:03.924Z,5.50
2023-02-28T07:50:06.397Z,7.00
2023-02-28T07:51:08.990Z,8.00
2023-02-28T07:52:12.399Z,10.75
2023-02-28T07:53:14.063Z,7.00
2023-02-28T07:54:16.655Z,7.50
2023-02-28T07:55:18.930Z,10.75
2023-02-28T07:56:21.521Z,8.50
2023-02-28T07:57:24.137Z,10.00
2023-02-28T07:58:25.873Z,9.00
2023-02-28T07:59:30.058Z,10.00
2023-02-28T08:00:34.624Z,10.00
2023-02-28T08:01:37.278Z,10.75
2023-02-28T08:02:38.934Z,9.50
2023-02-28T08:03:42.907Z,7.25
2023-02-28T08:04:44.577Z,10.00
2023-02-28T08:05:47.235Z,8.50
2023-02-28T08:06:52.848Z,8.75
2023-02-28T08:07:54.510Z,7.00
2023-02-28T08:08:57.924Z,5.50
2023-02-28T08:10:00.517Z,9.50
2023-02-28T08:11:02.850Z,9.25
2023-02-28T08:12:05.819Z,9.00
2023-02-28T08:13:08.433Z,5.00
2023-02-28T08:14:11.037Z,7.25
2023-02-28T08:15:12.680Z,5.00
2023-02-28T08:16:18.399Z,5.00
2023-02-28T08:17:21.287Z,5.00
2023-02-28T08:18:23.971Z,10.00
2023-02-28T08:19:27.944Z,5.00
2023-02-28T08:20:29.601Z,7.00
2023-02-28T08:21:32.257Z,4.00
2023-02-28T08:22:33.906Z,5.50
2023-02-28T08:23:36.508Z,6.50
2023-02-28T08:24:39.107Z,7.00
2023-02-28T08:25:40.733Z,5.00
2023-02-28T08:26:43.385Z,6.00
2023-02-28T08:27:45.085Z,7.25
2023-02-28T08:28:47.737Z,8.00
2023-02-28T08:29:50.487Z,6.75
2023-02-28T08:30:52.091Z,5.00
2023-02-28T08:31:54.813Z,8.00
2023-02-28T08:32:56.525Z,6.75
2023-02-28T08:34:00.130Z,6.75
2023-02-28T08:35:04.660Z,7.50
2023-02-28T08:36:07.220Z,5.25
2023-02-28T08:37:09.866Z,5.00
2023-02-28T08:38:12.470Z,5.50
2023-02-28T08:39:15.142Z,7.75
2023-02-28T08:40:19.156Z,5.00
2023-02-28T08:41:22.006Z,6.75
2023-02-28T08:42:23.849Z,7.00
2023-02-28T08:43:26.468Z,7.50
2023-02-28T08:44:28.352Z,6.75
2023-02-28T08:45:31.521Z,6.75
2023-02-28T08:46:34.143Z,6.75
2023-02-28T08:47:36.743Z,5.00
2023-02-28T08:48:38.868Z,8.00
2023-02-28T08:49:41.682Z,5.50
2023-02-28T08:50:50.407Z,5.50
2023-02-28T08:51:58.418Z,6.75
2023-02-28T08:53:00.734Z,5.50
2023-02-28T08:54:03.456Z,6.75
2023-02-28T08:55:06.737Z,5.50
2023-02-28T08:56:09.715Z,7.25
2023-02-28T08:57:12.329Z,7.75
2023-02-28T08:58:14.928Z,6.00
2023-02-28T08:59:16.541Z,10.00
2023-02-28T09:00:20.077Z,6.00
2023-02-28T09:01:24.041Z,10.00
2023-02-28T09:02:25.761Z,8.50
2023-02-28T09:03:28.897Z,5.50
2023-02-28T09:04:32.382Z,8.00
2023-02-28T09:05:34.012Z,8.00
2023-02-28T09:06:38.090Z,7.00
2023-02-28T09:07:39.754Z,6.00
2023-02-28T09:08:42.623Z,6.50
2023-02-28T09:09:55.406Z,8.00
2023-02-28T09:10:59.042Z,5.00
2023-02-28T09:12:02.403Z,8.00
2023-02-28T09:13:04.038Z,8.50
2023-02-28T09:14:06.629Z,8.00
2023-02-28T09:15:09.297Z,9.25
2023-02-28T09:16:13.334Z,8.00
2023-02-28T09:17:16.098Z,5.00
2023-02-28T09:18:17.807Z,6.00
2023-02-28T09:19:20.409Z,8.00
2023-02-28T09:20:22.025Z,9.25
2023-02-28T09:21:24.699Z,11.00
2023-02-28T09:22:28.693Z,8.00
2023-02-28T09:23:30.334Z,8.50
2023-02-28T09:24:33.920Z,13.00
2023-02-28T09:25:35.691Z,10.25
2023-02-28T09:26:43.280Z,8.00
2023-02-28T09:27:50.110Z,8.00
2023-02-28T09:28:52.079Z,8.00
2023-02-28T09:29:54.677Z,8.00
2023-02-28T09:30:58.393Z,8.00
2023-02-28T09:32:00.215Z,8.00
2023-02-28T09:33:02.835Z,8.00
2023-02-28T09:34:05.921Z,9.75
2023-02-28T09:35:14.096Z,7.00
2023-02-28T09:36:16.739Z,8.00
2023-02-28T09:37:19.354Z,6.00
2023-02-28T09:38:22.348Z,5.50
2023-02-28T09:39:25.154Z,8.00
2023-02-28T09:40:27.823Z,8.00
2023-02-28T09:41:32.614Z,8.00
2023-02-28T09:42:35.651Z,5.25
2023-02-28T09:43:38.958Z,8.00
2023-02-28T09:44:43.942Z,9.50
2023-02-28T09:45:48.915Z,6.00
2023-02-28T09:46:54.340Z,6.00
2023-02-28T09:47:57.573Z,7.50
2023-02-28T09:49:01.252Z,6.00
2023-02-28T09:50:08.240Z,8.00
2023-02-28T09:51:16.475Z,9.00
2023-02-28T09:52:20.364Z,4.75
2023-02-28T09:53:28.019Z,8.50
2023-02-28T09:54:31.986Z,8.00
2023-02-28T09:55:46.320Z,10.00
2023-02-28T09:56:53.091Z,7.00
2023-02-28T09:57:57.545Z,8.00
2023-02-28T09:59:00.366Z,7.50
2023-02-28T10:00:11.298Z,6.00
2023-02-28T10:01:20.490Z,10.00
2023-02-28T10:03:00.805Z,7.75
2023-02-28T10:04:06.151Z,9.25
2023-02-28T10:05:09.390Z,8.00
2023-02-28T10:06:14.631Z,8.50
2023-02-28T10:07:22.874Z,7.25
2023-02-28T10:08:27.686Z,6.50
2023-02-28T10:09:32.479Z,7.75
2023-02-28T10:10:36.514Z,10.50
2023-02-28T10:11:39.442Z,8.50
2023-02-28T10:12:41.183Z,10.25
2023-02-28T10:13:51.628Z,11.75
2023-02-28T10:14:54.716Z,12.75
2023-02-28T10:15:59.952Z,11.50
2023-02-28T10:17:04.146Z,8.50
2023-02-28T10:18:09.298Z,8.00
2023-02-28T10:19:15.699Z,12.75
2023-02-28T10:20:21.569Z,8.50
2023-02-28T10:21:26.872Z,11.00
2023-02-28T10:22:31.217Z,10.00
2023-02-28T10:23:36.851Z,11.00
2023-02-28T10:24:40.051Z,10.00
2023-02-28T10:25:42.710Z,10.50
2023-02-28T10:26:45.678Z,8.00
2023-02-28T10:27:47.379Z,10.25
2023-02-28T10:28:50.000Z,11.00
2023-02-28T10:29:53.019Z,10.50
2023-02-28T10:30:55.729Z,12.25
2023-02-28T10:32:03.770Z,10.00
2023-02-28T10:33:05.461Z,8.50
2023-02-28T10:34:08.149Z,10.00
2023-02-28T10:35:15.374Z,9.50
2023-02-28T10:36:19.905Z,7.00
2023-02-28T10:37:21.918Z,8.00
2023-02-28T10:38:25.675Z,9.50
2023-02-28T10:39:38.837Z,8.00
2023-02-28T10:40:41.480Z,8.00
2023-02-28T10:41:44.419Z,8.00
2023-02-28T10:42:55.638Z,9.75
2023-02-28T10:44:16.932Z,10.00
2023-02-28T10:45:18.715Z,8.00
2023-02-28T10:46:26.553Z,10.25
2023-02-28T10:47:28.537Z,8.00
2023-02-28T10:48:34.128Z,8.75
2023-02-28T10:49:39.082Z,9.00
2023-02-28T10:50:44.827Z,9.25
2023-02-28T10:51:48.300Z,9.00
2023-02-28T10:52:49.948Z,11.00
2023-02-28T10:54:01.104Z,10.75
2023-02-28T10:55:22.734Z,8.00
2023-02-28T10:56:25.748Z,9.00
2023-02-28T10:57:27.384Z,10.50
2023-02-28T10:58:32.298Z,7.75
2023-02-28T10:59:34.909Z,11.25
2023-02-28T11:00:36.575Z,11.75
2023-02-28T11:01:40.649Z,10.50
2023-02-28T11:02:43.903Z,7.75
2023-02-28T11:03:46.885Z,9.25
2023-02-28T11:04:49.635Z,12.75
2023-02-28T11:05:52.624Z,10.50
2023-02-28T11:06:59.021Z,9.75
2023-02-28T11:08:05.805Z,10.75
2023-02-28T11:09:20.506Z,9.75
2023-02-28T11:10:26.265Z,11.00
2023-02-28T11:11:30.045Z,9.50
2023-02-28T11:12:46.891Z,9.50
2023-02-28T11:13:55.482Z,11.50
2023-02-28T11:14:57.932Z,10.75
2023-02-28T11:16:02.045Z,10.50
2023-02-28T11:17:14.218Z,8.50
2023-02-28T11:18:25.299Z,10.25
2023-02-28T11:19:31.515Z,10.75
2023-02-28T11:20:33.719Z,9.75
2023-02-28T11:21:40.827Z,12.00
2023-02-28T11:22:44.615Z,10.25
2023-02-28T11:23:47.252Z,10.75
2023-02-28T11:24:51.283Z,11.50
2023-02-28T11:25:57.865Z,9.00
2023-02-28T11:27:00.932Z,10.00
2023-02-28T11:28:07.173Z,10.75
2023-02-28T11:29:18.316Z,9.00
2023-02-28T11:30:29.238Z,12.00
2023-02-28T11:31:33.285Z,11.50
2023-02-28T11:32:35.087Z,12.50
2023-02-28T11:33:42.754Z,12.00
2023-02-28T11:34:45.528Z,15.00
2023-02-28T11:35:47.205Z,12.00
2023-02-28T11:36:52.688Z,12.25
2023-02-28T11:37:54.385Z,11.25
2023-02-28T11:38:58.574Z,12.00
2023-02-28T11:40:00.228Z,14.00
2023-02-28T11:41:16.047Z,12.00
2023-02-28T11:42:34.366Z,11.75
2023-02-28T11:43:43.436Z,12.00
2023-02-28T11:44:55.876Z,12.00
2023-02-28T11:46:08.540Z,11.00
2023-02-28T11:47:13.808Z,14.50
2023-02-28T11:48:19.719Z,12.00
2023-02-28T11:49:32.473Z,15.25
2023-02-28T11:50:47.279Z,12.00
2023-02-28T11:51:53.024Z,11.25
2023-02-28T11:52:55.993Z,11.50
2023-02-28T11:54:33.910Z,10.50
2023-02-28T11:55:36.846Z,11.50
2023-02-28T11:56:41.781Z,11.75
2023-02-28T11:57:52.786Z,11.00
2023-02-28T11:59:01.362Z,11.00
2023-02-28T12:00:07.502Z,10.75
2023-02-28T12:01:25.240Z,10.00
2023-02-28T12:02:29.180Z,12.50
2023-02-28T12:03:36.144Z,12.00
2023-02-28T12:04:43.054Z,15.25
2023-02-28T12:05:46.947Z,14.50
2023-02-28T12:06:52.800Z,12.50
2023-02-28T12:08:04.737Z,12.00
2023-02-28T12:09:15.754Z,13.25
2023-02-28T12:10:21.797Z,14.50
2023-02-28T12:11:31.746Z,15.50
2023-02-28T12:12:40.114Z,12.50
2023-02-28T12:13:48.141Z,15.25
2023-02-28T12:15:30.396Z,15.25
2023-02-28T12:16:41.083Z,12.25
2023-02-28T12:17:53.223Z,15.00
2023-02-28T12:19:02.505Z,13.00
2023-02-28T12:20:09.899Z,11.75
2023-02-28T12:21:16.475Z,13.00
2023-02-28T12:22:25.879Z,12.25
2023-02-28T12:23:42.614Z,13.00
2023-02-28T12:24:53.976Z,10.00
2023-02-28T12:26:00.217Z,14.50
2023-02-28T12:27:04.142Z,11.50
2023-02-28T12:28:08.506Z,11.25
2023-02-28T12:29:15.066Z,16.25
2023-02-28T12:30:19.736Z,11.00
2023-02-28T12:31:23.926Z,13.50
2023-02-28T12:32:27.754Z,13.00
2023-02-28T12:33:34.304Z,12.75
2023-02-28T12:34:39.293Z,13.75
2023-02-28T12:35:45.197Z,12.25
2023-02-28T12:36:47.921Z,16.25
2023-02-28T12:37:52.248Z,14.00
2023-02-28T12:38:56.286Z,12.00
2023-02-28T12:40:04.310Z,14.00
2023-02-28T12:41:08.840Z,10.25
2023-02-28T12:42:12.943Z,11.00
2023-02-28T12:43:17.800Z,17.00
2023-02-28T12:44:22.618Z,15.00
2023-02-28T12:45:25.088Z,13.50
2023-02-28T12:46:31.325Z,21.50
2023-02-28T12:47:33.047Z,12.25
2023-02-28T12:48:39.922Z,14.75
2023-02-28T12:49:44.738Z,14.00
2023-02-28T12:50:47.498Z,13.75
2023-02-28T12:51:49.118Z,14.75
2023-02-28T12:52:55.583Z,14.50
2023-02-28T12:54:06.654Z,13.75
2023-02-28T12:55:10.504Z,10.25
2023-02-28T12:56:17.535Z,13.25
2023-02-28T12:57:20.668Z,13.25
2023-02-28T12:58:28.233Z,8.00
2023-02-28T12:59:33.407Z,10.25
2023-02-28T13:00:37.312Z,13.50
2023-02-28T13:01:46.249Z,11.75
2023-02-28T13:02:58.998Z,12.25
2023-02-28T13:04:56.078Z,15.00
2023-02-28T13:06:21.046Z,13.50
2023-02-28T13:07:49.356Z,13.50
2023-02-28T13:09:13.429Z,9.00
2023-02-28T13:10:17.536Z,11.75
2023-02-28T13:11:27.679Z,15.75
2023-02-28T13:12:31.069Z,11.25
2023-02-28T13:13:34.051Z,16.00
2023-02-28T13:14:38.156Z,16.50
2023-02-28T13:15:42.037Z,13.00
2023-02-28T13:16:55.592Z,15.25
2023-02-28T13:17:59.007Z,12.75
2023-02-28T13:19:10.760Z,11.75
2023-02-28T13:20:18.054Z,14.25
2023-02-28T13:21:24.013Z,11.25
2023-02-28T13:22:40.800Z,11.75
2023-02-28T13:24:05.321Z,10.50
2023-02-28T13:25:50.065Z,14.00
2023-02-28T13:27:32.213Z,14.00
2023-02-28T13:31:03.857Z,15.00
2023-02-28T13:32:33.956Z,14.50
2023-02-28T13:33:39.765Z,12.75
2023-02-28T13:34:41.592Z,14.00
2023-02-28T13:35:47.342Z,12.75
2023-02-28T13:36:50.026Z,13.25
2023-02-28T13:37:52.673Z,16.50
2023-02-28T13:38:56.339Z,13.75
2023-02-28T13:39:58.217Z,12.00
2023-02-28T13:41:36.760Z,13.25
2023-02-28T13:42:39.430Z,13.00
2023-02-28T13:44:00.979Z,16.75
2023-02-28T13:45:28.373Z,12.75
2023-02-28T13:46:31.720Z,15.00
2023-02-28T13:47:35.231Z,14.25
2023-02-28T13:48:37.897Z,17.25
2023-02-28T13:49:40.616Z,13.25
2023-02-28T13:50:43.213Z,13.75
2023-02-28T13:51:46.057Z,16.00
2023-02-28T13:52:51.291Z,12.50
2023-02-28T13:53:59.560Z,14.25
2023-02-28T13:55:29.248Z,13.50
2023-02-28T13:56:37.114Z,14.50
2023-02-28T13:57:46.946Z,15.50
2023-02-28T13:58:55.170Z,12.50
2023-02-28T14:00:17.855Z,15.50
2023-02-28T14:01:28.346Z,12.00
2023-02-28T14:02:41.032Z,12.75
2023-02-28T14:04:18.011Z,12.00
2023-02-28T14:05:20.685Z,10.75
2023-02-28T14:06:27.751Z,14.00
2023-02-28T14:07:36.240Z,15.00
2023-02-28T14:08:39.397Z,14.00
2023-02-28T14:09:42.115Z,15.50
2023-02-28T14:10:46.365Z,15.25
2023-02-28T14:11:47.996Z,13.75
2023-02-28T14:13:01.693Z,12.25
2023-02-28T14:14:05.350Z,14.75
2023-02-28T14:15:31.072Z,13.75